sensor_id;sensor_type;location;lat;lon;timestamp;P1;durP1;ratioP1;P2;durP2;ratioP2
17451;SDS011;8843;48.838;9.324;2023-05-10T00:01:07;1.57;;;1.00;;
17451;SDS011;8843;48.838;9.324;2023-05-10T00:03:34;2.33;;;1.40;;
17451;SDS011;8843;48.838;9.324;2023-05-10T00:06:00;2.07;;;1.20;;
17451;SDS011;8843;48.838;9.324;2023-05-10T00:08:27;0.90;;;0.90;;
17451;SDS011;8843;48.838;9.324;2023-05-10T00:10:55;1.07;;;0.97;;
17451;SDS011;8843;48.838;9.324;2023-05-10T00:13:22;2.70;;;1.10;;
17451;SDS011;8843;48.838;9.324;2023-05-10T00:15:49;0.70;;;0.70;;
17451;SDS011;8843;48.838;9.324;2023-05-10T00:18:16;0.90;;;0.90;;
17451;SDS011;8843;48.838;9.324;2023-05-10T00:20:43;1.20;;;0.90;;
17451;SDS011;8843;48.838;9.324;2023-05-10T00:23:11;0.70;;;0.70;;
17451;SDS011;8843;48.838;9.324;2023-05-10T00:25:37;1.23;;;0.60;;
17451;SDS011;8843;48.838;9.324;2023-05-10T00:28:06;1.50;;;0.77;;
17451;SDS011;8843;48.838;9.324;2023-05-10T00:30:33;0.63;;;0.60;;
17451;SDS011;8843;48.838;9.324;2023-05-10T00:32:59;0.47;;;0.47;;
17451;SDS011;8843;48.838;9.324;2023-05-10T00:35:26;0.60;;;0.60;;
17451;SDS011;8843;48.838;9.324;2023-05-10T00:37:53;0.43;;;0.43;;
17451;SDS011;8843;48.838;9.324;2023-05-10T00:40:20;0.43;;;0.43;;
17451;SDS011;8843;48.838;9.324;2023-05-10T00:42:47;0.60;;;0.60;;
17451;SDS011;8843;48.838;9.324;2023-05-10T00:45:15;0.70;;;0.70;;
17451;SDS011;8843;48.838;9.324;2023-05-10T00:47:42;0.60;;;0.60;;
17451;SDS011;8843;48.838;9.324;2023-05-10T00:50:09;1.80;;;0.60;;
17451;SDS011;8843;48.838;9.324;2023-05-10T00:52:36;0.50;;;0.50;;
17451;SDS011;8843;48.838;9.324;2023-05-10T00:55:03;0.63;;;0.63;;
17451;SDS011;8843;48.838;9.324;2023-05-10T00:57:32;0.60;;;0.60;;
17451;SDS011;8843;48.838;9.324;2023-05-10T00:59:59;0.57;;;0.57;;
17451;SDS011;8843;48.838;9.324;2023-05-10T01:02:27;0.60;;;0.60;;
17451;SDS011;8843;48.838;9.324;2023-05-10T01:04:54;0.70;;;0.70;;
17451;SDS011;8843;48.838;9.324;2023-05-10T01:07:21;0.40;;;0.40;;
17451;SDS011;8843;48.838;9.324;2023-05-10T01:09:48;0.70;;;0.70;;
17451;SDS011;8843;48.838;9.324;2023-05-10T01:12:15;1.30;;;0.83;;
17451;SDS011;8843;48.838;9.324;2023-05-10T01:14:42;0.50;;;0.50;;
17451;SDS011;8843;48.838;9.324;2023-05-10T01:17:09;0.63;;;0.57;;
17451;SDS011;8843;48.838;9.324;2023-05-10T01:19:39;0.50;;;0.50;;
17451;SDS011;8843;48.838;9.324;2023-05-10T01:22:09;0.60;;;0.60;;
17451;SDS011;8843;48.838;9.324;2023-05-10T01:24:56;1.30;;;0.50;;
17451;SDS011;8843;48.838;9.324;2023-05-10T01:33:45;0.80;;;0.80;;
17451;SDS011;8843;48.838;9.324;2023-05-10T01:36:20;4.33;;;2.97;;
17451;SDS011;8843;48.838;9.324;2023-05-10T01:38:55;4.10;;;1.60;;
17451;SDS011;8843;48.838;9.324;2023-05-10T01:41:28;0.90;;;0.90;;
17451;SDS011;8843;48.838;9.324;2023-05-10T01:44:04;2.47;;;1.10;;
17451;SDS011;8843;48.838;9.324;2023-05-10T01:46:36;1.07;;;0.90;;
17451;SDS011;8843;48.838;9.324;2023-05-10T01:49:07;0.80;;;0.80;;
17451;SDS011;8843;48.838;9.324;2023-05-10T01:51:36;0.90;;;0.70;;
17451;SDS011;8843;48.838;9.324;2023-05-10T01:54:11;3.10;;;0.90;;
17451;SDS011;8843;48.838;9.324;2023-05-10T01:56:39;0.87;;;0.87;;
17451;SDS011;8843;48.838;9.324;2023-05-10T01:59:08;0.77;;;0.77;;
17451;SDS011;8843;48.838;9.324;2023-05-10T02:01:39;0.70;;;0.70;;
17451;SDS011;8843;48.838;9.324;2023-05-10T02:04:08;0.70;;;0.70;;
17451;SDS011;8843;48.838;9.324;2023-05-10T02:06:38;2.67;;;0.80;;
17451;SDS011;8843;48.838;9.324;2023-05-10T02:09:06;1.00;;;0.87;;
17451;SDS011;8843;48.838;9.324;2023-05-10T02:11:34;2.10;;;0.70;;
17451;SDS011;8843;48.838;9.324;2023-05-10T02:14:03;0.73;;;0.73;;
17451;SDS011;8843;48.838;9.324;2023-05-10T02:16:33;0.80;;;0.80;;
17451;SDS011;8843;48.838;9.324;2023-05-10T02:19:02;0.80;;;0.80;;
17451;SDS011;8843;48.838;9.324;2023-05-10T02:21:31;1.07;;;0.70;;
17451;SDS011;8843;48.838;9.324;2023-05-10T02:24:00;0.90;;;0.90;;
17451;SDS011;8843;48.838;9.324;2023-05-10T02:26:29;0.80;;;0.80;;
17451;SDS011;8843;48.838;9.324;2023-05-10T02:28:57;1.90;;;0.80;;
17451;SDS011;8843;48.838;9.324;2023-05-10T02:31:24;0.80;;;0.80;;
17451;SDS011;8843;48.838;9.324;2023-05-10T02:33:52;1.20;;;0.67;;
17451;SDS011;8843;48.838;9.324;2023-05-10T02:36:20;0.80;;;0.80;;
17451;SDS011;8843;48.838;9.324;2023-05-10T02:38:49;0.80;;;0.80;;
17451;SDS011;8843;48.838;9.324;2023-05-10T02:41:19;2.67;;;0.63;;
17451;SDS011;8843;48.838;9.324;2023-05-10T02:43:49;2.87;;;0.87;;
17451;SDS011;8843;48.838;9.324;2023-05-10T02:46:17;1.43;;;0.90;;
17451;SDS011;8843;48.838;9.324;2023-05-10T02:48:44;1.47;;;0.73;;
17451;SDS011;8843;48.838;9.324;2023-05-10T02:51:12;0.80;;;0.80;;
17451;SDS011;8843;48.838;9.324;2023-05-10T02:53:43;0.70;;;0.70;;
17451;SDS011;8843;48.838;9.324;2023-05-10T02:56:15;1.13;;;0.80;;
17451;SDS011;8843;48.838;9.324;2023-05-10T02:58:50;0.70;;;0.70;;
17451;SDS011;8843;48.838;9.324;2023-05-10T03:01:17;0.70;;;0.70;;
17451;SDS011;8843;48.838;9.324;2023-05-10T03:03:43;0.70;;;0.70;;
17451;SDS011;8843;48.838;9.324;2023-05-10T03:06:10;0.90;;;0.90;;
17451;SDS011;8843;48.838;9.324;2023-05-10T03:08:37;0.70;;;0.70;;
17451;SDS011;8843;48.838;9.324;2023-05-10T03:11:10;1.90;;;0.77;;
17451;SDS011;8843;48.838;9.324;2023-05-10T03:13:53;9.23;;;1.00;;
17451;SDS011;8843;48.838;9.324;2023-05-10T03:16:33;0.70;;;0.70;;
17451;SDS011;8843;48.838;9.324;2023-05-10T03:19:12;1.33;;;0.87;;
17451;SDS011;8843;48.838;9.324;2023-05-10T03:21:45;1.13;;;1.00;;
17451;SDS011;8843;48.838;9.324;2023-05-10T03:24:16;1.10;;;0.70;;
17451;SDS011;8843;48.838;9.324;2023-05-10T03:26:49;1.20;;;1.10;;
17451;SDS011;8843;48.838;9.324;2023-05-10T03:29:17;1.10;;;1.03;;
17451;SDS011;8843;48.838;9.324;2023-05-10T03:31:45;2.30;;;1.30;;
17451;SDS011;8843;48.838;9.324;2023-05-10T03:34:12;1.13;;;1.03;;
17451;SDS011;8843;48.838;9.324;2023-05-10T03:36:39;1.27;;;1.27;;
17451;SDS011;8843;48.838;9.324;2023-05-10T03:39:06;1.40;;;1.30;;
17451;SDS011;8843;48.838;9.324;2023-05-10T03:41:33;1.57;;;1.47;;
17451;SDS011;8843;48.838;9.324;2023-05-10T03:44:01;1.83;;;1.30;;
17451;SDS011;8843;48.838;9.324;2023-05-10T03:46:28;4.20;;;1.40;;
17451;SDS011;8843;48.838;9.324;2023-05-10T03:48:55;1.67;;;1.57;;
17451;SDS011;8843;48.838;9.324;2023-05-10T03:51:21;1.53;;;1.43;;
17451;SDS011;8843;48.838;9.324;2023-05-10T03:53:50;1.60;;;1.50;;
17451;SDS011;8843;48.838;9.324;2023-05-10T03:56:17;2.87;;;1.50;;
17451;SDS011;8843;48.838;9.324;2023-05-10T03:58:43;2.07;;;1.50;;
17451;SDS011;8843;48.838;9.324;2023-05-10T04:01:12;1.93;;;1.50;;
17451;SDS011;8843;48.838;9.324;2023-05-10T04:03:38;1.30;;;1.20;;
17451;SDS011;8843;48.838;9.324;2023-05-10T04:06:05;1.50;;;1.40;;
17451;SDS011;8843;48.838;9.324;2023-05-10T04:08:34;3.10;;;1.13;;
17451;SDS011;8843;48.838;9.324;2023-05-10T04:11:04;1.40;;;1.30;;
17451;SDS011;8843;48.838;9.324;2023-05-10T04:13:32;2.03;;;1.23;;
17451;SDS011;8843;48.838;9.324;2023-05-10T04:15:59;1.20;;;1.20;;
17451;SDS011;8843;48.838;9.324;2023-05-10T04:18:28;1.77;;;1.33;;
17451;SDS011;8843;48.838;9.324;2023-05-10T04:20:55;1.73;;;1.23;;
17451;SDS011;8843;48.838;9.324;2023-05-10T04:23:21;1.17;;;1.17;;
17451;SDS011;8843;48.838;9.324;2023-05-10T04:25:49;1.20;;;1.10;;
17451;SDS011;8843;48.838;9.324;2023-05-10T04:28:16;1.40;;;1.30;;
17451;SDS011;8843;48.838;9.324;2023-05-10T04:30:43;1.40;;;1.30;;
17451;SDS011;8843;48.838;9.324;2023-05-10T04:33:10;1.43;;;1.33;;
17451;SDS011;8843;48.838;9.324;2023-05-10T04:35:39;1.20;;;1.10;;
17451;SDS011;8843;48.838;9.324;2023-05-10T04:38:06;1.80;;;1.00;;
17451;SDS011;8843;48.838;9.324;2023-05-10T04:40:32;1.70;;;1.03;;
17451;SDS011;8843;48.838;9.324;2023-05-10T04:43:00;1.67;;;0.97;;
17451;SDS011;8843;48.838;9.324;2023-05-10T04:45:27;1.20;;;1.10;;
17451;SDS011;8843;48.838;9.324;2023-05-10T04:47:54;1.70;;;1.10;;
17451;SDS011;8843;48.838;9.324;2023-05-10T04:50:21;0.80;;;0.80;;
17451;SDS011;8843;48.838;9.324;2023-05-10T04:52:49;1.03;;;1.03;;
17451;SDS011;8843;48.838;9.324;2023-05-10T04:55:16;0.93;;;0.90;;
17451;SDS011;8843;48.838;9.324;2023-05-10T04:57:43;0.93;;;0.93;;
17451;SDS011;8843;48.838;9.324;2023-05-10T05:00:10;1.10;;;1.03;;
17451;SDS011;8843;48.838;9.324;2023-05-10T05:02:38;1.07;;;1.00;;
17451;SDS011;8843;48.838;9.324;2023-05-10T05:05:08;2.40;;;1.13;;
17451;SDS011;8843;48.838;9.324;2023-05-10T05:07:35;1.20;;;1.10;;
17451;SDS011;8843;48.838;9.324;2023-05-10T05:10:04;1.27;;;1.17;;
17451;SDS011;8843;48.838;9.324;2023-05-10T05:12:31;2.60;;;1.50;;
17451;SDS011;8843;48.838;9.324;2023-05-10T05:14:58;2.50;;;1.40;;
17451;SDS011;8843;48.838;9.324;2023-05-10T05:17:25;2.57;;;1.43;;
17451;SDS011;8843;48.838;9.324;2023-05-10T05:19:52;2.80;;;1.20;;
17451;SDS011;8843;48.838;9.324;2023-05-10T05:22:19;1.50;;;1.40;;
17451;SDS011;8843;48.838;9.324;2023-05-10T05:24:52;1.10;;;1.10;;
17451;SDS011;8843;48.838;9.324;2023-05-10T05:27:20;2.60;;;1.30;;
17451;SDS011;8843;48.838;9.324;2023-05-10T05:29:49;1.40;;;1.30;;
17451;SDS011;8843;48.838;9.324;2023-05-10T05:32:16;1.63;;;1.23;;
17451;SDS011;8843;48.838;9.324;2023-05-10T05:34:44;1.03;;;1.03;;
17451;SDS011;8843;48.838;9.324;2023-05-10T05:37:16;1.30;;;1.17;;
17451;SDS011;8843;48.838;9.324;2023-05-10T05:39:50;1.77;;;1.67;;
17451;SDS011;8843;48.838;9.324;2023-05-10T05:42:17;1.50;;;1.40;;
17451;SDS011;8843;48.838;9.324;2023-05-10T05:44:45;3.57;;;1.40;;
17451;SDS011;8843;48.838;9.324;2023-05-10T05:47:12;2.60;;;1.10;;
17451;SDS011;8843;48.838;9.324;2023-05-10T05:49:39;1.60;;;1.50;;
17451;SDS011;8843;48.838;9.324;2023-05-10T05:52:06;1.40;;;1.30;;
17451;SDS011;8843;48.838;9.324;2023-05-10T05:54:33;2.87;;;1.43;;
17451;SDS011;8843;48.838;9.324;2023-05-10T05:57:00;2.03;;;1.10;;
17451;SDS011;8843;48.838;9.324;2023-05-10T05:59:27;1.47;;;1.20;;
17451;SDS011;8843;48.838;9.324;2023-05-10T06:01:55;2.87;;;1.40;;
17451;SDS011;8843;48.838;9.324;2023-05-10T06:04:22;1.20;;;1.10;;
17451;SDS011;8843;48.838;9.324;2023-05-10T06:06:49;2.63;;;1.27;;
17451;SDS011;8843;48.838;9.324;2023-05-10T06:09:16;2.23;;;1.27;;
17451;SDS011;8843;48.838;9.324;2023-05-10T06:11:43;1.23;;;1.03;;
17451;SDS011;8843;48.838;9.324;2023-05-10T06:14:10;1.00;;;1.00;;
17451;SDS011;8843;48.838;9.324;2023-05-10T06:16:36;4.73;;;1.40;;
17451;SDS011;8843;48.838;9.324;2023-05-10T06:19:05;1.87;;;1.33;;
17451;SDS011;8843;48.838;9.324;2023-05-10T06:21:32;2.33;;;1.37;;
17451;SDS011;8843;48.838;9.324;2023-05-10T06:23:58;2.30;;;1.37;;
17451;SDS011;8843;48.838;9.324;2023-05-10T06:26:25;1.40;;;1.30;;
17451;SDS011;8843;48.838;9.324;2023-05-10T06:28:52;1.30;;;1.20;;
17451;SDS011;8843;48.838;9.324;2023-05-10T06:31:19;1.93;;;1.40;;
17451;SDS011;8843;48.838;9.324;2023-05-10T06:33:46;2.50;;;1.30;;
17451;SDS011;8843;48.838;9.324;2023-05-10T06:36:14;1.30;;;1.20;;
17451;SDS011;8843;48.838;9.324;2023-05-10T06:38:41;1.47;;;1.33;;
17451;SDS011;8843;48.838;9.324;2023-05-10T06:41:08;1.47;;;1.37;;
17451;SDS011;8843;48.838;9.324;2023-05-10T06:43:35;2.77;;;1.30;;
17451;SDS011;8843;48.838;9.324;2023-05-10T06:46:04;2.30;;;1.30;;
17451;SDS011;8843;48.838;9.324;2023-05-10T06:48:32;2.40;;;1.30;;
17451;SDS011;8843;48.838;9.324;2023-05-10T06:50:59;1.40;;;1.20;;
17451;SDS011;8843;48.838;9.324;2023-05-10T06:53:27;2.83;;;1.93;;
17451;SDS011;8843;48.838;9.324;2023-05-10T06:55:54;4.37;;;1.70;;
17451;SDS011;8843;48.838;9.324;2023-05-10T06:58:21;1.07;;;1.07;;
17451;SDS011;8843;48.838;9.324;2023-05-10T07:00:48;1.73;;;1.50;;
17451;SDS011;8843;48.838;9.324;2023-05-10T07:03:15;4.30;;;1.83;;
17451;SDS011;8843;48.838;9.324;2023-05-10T07:05:42;2.60;;;1.40;;
17451;SDS011;8843;48.838;9.324;2023-05-10T07:08:09;2.47;;;1.10;;
17451;SDS011;8843;48.838;9.324;2023-05-10T07:10:37;1.30;;;1.20;;
17451;SDS011;8843;48.838;9.324;2023-05-10T07:13:04;3.57;;;1.53;;
17451;SDS011;8843;48.838;9.324;2023-05-10T07:15:31;1.30;;;1.20;;
17451;SDS011;8843;48.838;9.324;2023-05-10T07:17:58;1.40;;;1.30;;
17451;SDS011;8843;48.838;9.324;2023-05-10T07:20:25;1.70;;;1.27;;
17451;SDS011;8843;48.838;9.324;2023-05-10T07:22:53;1.80;;;1.23;;
17451;SDS011;8843;48.838;9.324;2023-05-10T07:25:19;2.83;;;1.23;;
17451;SDS011;8843;48.838;9.324;2023-05-10T07:27:48;1.63;;;1.20;;
17451;SDS011;8843;48.838;9.324;2023-05-10T07:30:16;1.10;;;1.10;;
17451;SDS011;8843;48.838;9.324;2023-05-10T07:32:42;3.50;;;1.37;;
17451;SDS011;8843;48.838;9.324;2023-05-10T07:35:10;1.70;;;1.60;;
17451;SDS011;8843;48.838;9.324;2023-05-10T07:37:36;1.90;;;1.20;;
17451;SDS011;8843;48.838;9.324;2023-05-10T07:40:04;1.20;;;1.10;;
17451;SDS011;8843;48.838;9.324;2023-05-10T07:42:31;4.40;;;1.40;;
17451;SDS011;8843;48.838;9.324;2023-05-10T07:45:00;1.77;;;1.00;;
17451;SDS011;8843;48.838;9.324;2023-05-10T07:47:27;1.43;;;1.17;;
17451;SDS011;8843;48.838;9.324;2023-05-10T07:49:53;1.20;;;1.10;;
17451;SDS011;8843;48.838;9.324;2023-05-10T07:52:20;1.13;;;1.03;;
17451;SDS011;8843;48.838;9.324;2023-05-10T07:54:47;1.67;;;1.33;;
17451;SDS011;8843;48.838;9.324;2023-05-10T07:57:15;1.33;;;1.23;;
17451;SDS011;8843;48.838;9.324;2023-05-10T07:59:42;1.53;;;1.13;;
17451;SDS011;8843;48.838;9.324;2023-05-10T08:02:11;1.37;;;1.27;;
17451;SDS011;8843;48.838;9.324;2023-05-10T08:04:38;1.30;;;1.20;;
17451;SDS011;8843;48.838;9.324;2023-05-10T08:07:05;1.40;;;1.30;;
17451;SDS011;8843;48.838;9.324;2023-05-10T08:09:32;1.20;;;1.07;;
17451;SDS011;8843;48.838;9.324;2023-05-10T08:11:59;0.90;;;0.90;;
17451;SDS011;8843;48.838;9.324;2023-05-10T08:14:27;1.20;;;1.10;;
17451;SDS011;8843;48.838;9.324;2023-05-10T08:16:54;1.43;;;0.97;;
17451;SDS011;8843;48.838;9.324;2023-05-10T08:19:23;0.97;;;0.90;;
17451;SDS011;8843;48.838;9.324;2023-05-10T08:21:49;1.33;;;1.07;;
17451;SDS011;8843;48.838;9.324;2023-05-10T08:24:16;0.90;;;0.90;;
17451;SDS011;8843;48.838;9.324;2023-05-10T08:26:43;1.10;;;1.00;;
17451;SDS011;8843;48.838;9.324;2023-05-10T08:29:10;0.80;;;0.80;;
17451;SDS011;8843;48.838;9.324;2023-05-10T08:31:37;1.83;;;1.00;;
17451;SDS011;8843;48.838;9.324;2023-05-10T08:34:04;0.77;;;0.77;;
17451;SDS011;8843;48.838;9.324;2023-05-10T08:36:32;1.40;;;1.00;;
17451;SDS011;8843;48.838;9.324;2023-05-10T08:38:59;1.00;;;1.00;;
17451;SDS011;8843;48.838;9.324;2023-05-10T08:41:26;1.00;;;1.00;;
17451;SDS011;8843;48.838;9.324;2023-05-10T08:43:53;1.07;;;1.03;;
17451;SDS011;8843;48.838;9.324;2023-05-10T08:46:21;1.20;;;0.90;;
17451;SDS011;8843;48.838;9.324;2023-05-10T08:48:49;1.60;;;1.17;;
17451;SDS011;8843;48.838;9.324;2023-05-10T08:51:18;0.90;;;0.83;;
17451;SDS011;8843;48.838;9.324;2023-05-10T08:53:50;1.10;;;0.93;;
17451;SDS011;8843;48.838;9.324;2023-05-10T08:56:17;2.60;;;1.17;;
17451;SDS011;8843;48.838;9.324;2023-05-10T08:58:44;1.17;;;0.83;;
17451;SDS011;8843;48.838;9.324;2023-05-10T09:01:12;1.10;;;1.00;;
17451;SDS011;8843;48.838;9.324;2023-05-10T09:03:39;1.00;;;0.90;;
17451;SDS011;8843;48.838;9.324;2023-05-10T09:06:06;0.80;;;0.80;;
17451;SDS011;8843;48.838;9.324;2023-05-10T09:08:34;1.67;;;0.80;;
17451;SDS011;8843;48.838;9.324;2023-05-10T09:11:04;0.80;;;0.80;;
17451;SDS011;8843;48.838;9.324;2023-05-10T09:13:31;0.73;;;0.73;;
17451;SDS011;8843;48.838;9.324;2023-05-10T09:15:58;0.90;;;0.90;;
17451;SDS011;8843;48.838;9.324;2023-05-10T09:18:26;0.70;;;0.70;;
17451;SDS011;8843;48.838;9.324;2023-05-10T09:20:53;1.03;;;0.83;;
17451;SDS011;8843;48.838;9.324;2023-05-10T09:23:20;1.00;;;0.87;;
17451;SDS011;8843;48.838;9.324;2023-05-10T09:25:48;1.07;;;0.93;;
17451;SDS011;8843;48.838;9.324;2023-05-10T09:28:32;0.70;;;0.70;;
17451;SDS011;8843;48.838;9.324;2023-05-10T09:30:59;1.17;;;1.00;;
17451;SDS011;8843;48.838;9.324;2023-05-10T09:33:26;1.23;;;0.90;;
17451;SDS011;8843;48.838;9.324;2023-05-10T09:35:53;0.70;;;0.70;;
17451;SDS011;8843;48.838;9.324;2023-05-10T09:38:20;0.60;;;0.60;;
17451;SDS011;8843;48.838;9.324;2023-05-10T09:40:50;0.80;;;0.80;;
17451;SDS011;8843;48.838;9.324;2023-05-10T09:43:20;1.77;;;0.80;;
17451;SDS011;8843;48.838;9.324;2023-05-10T09:45:49;1.07;;;0.70;;
17451;SDS011;8843;48.838;9.324;2023-05-10T09:48:15;0.97;;;0.87;;
17451;SDS011;8843;48.838;9.324;2023-05-10T09:50:42;1.23;;;0.80;;
17451;SDS011;8843;48.838;9.324;2023-05-10T09:53:09;1.00;;;0.90;;
17451;SDS011;8843;48.838;9.324;2023-05-10T09:55:42;1.70;;;0.70;;
17451;SDS011;8843;48.838;9.324;2023-05-10T09:58:11;0.80;;;0.80;;
17451;SDS011;8843;48.838;9.324;2023-05-10T10:00:39;0.73;;;0.73;;
17451;SDS011;8843;48.838;9.324;2023-05-10T10:03:13;1.23;;;0.90;;
17451;SDS011;8843;48.838;9.324;2023-05-10T10:05:41;0.83;;;0.83;;
17451;SDS011;8843;48.838;9.324;2023-05-10T10:08:09;0.80;;;0.80;;
17451;SDS011;8843;48.838;9.324;2023-05-10T10:10:37;3.03;;;1.00;;
17451;SDS011;8843;48.838;9.324;2023-05-10T10:13:05;0.90;;;0.90;;
17451;SDS011;8843;48.838;9.324;2023-05-10T10:15:33;0.87;;;0.87;;
17451;SDS011;8843;48.838;9.324;2023-05-10T10:18:00;0.70;;;0.70;;
17451;SDS011;8843;48.838;9.324;2023-05-10T10:20:29;1.07;;;0.90;;
17451;SDS011;8843;48.838;9.324;2023-05-10T10:22:56;0.93;;;0.90;;
17451;SDS011;8843;48.838;9.324;2023-05-10T10:25:23;2.00;;;1.00;;
17451;SDS011;8843;48.838;9.324;2023-05-10T10:27:56;1.07;;;1.07;;
17451;SDS011;8843;48.838;9.324;2023-05-10T10:30:35;1.17;;;1.10;;
17451;SDS011;8843;48.838;9.324;2023-05-10T10:33:13;0.80;;;0.80;;
17451;SDS011;8843;48.838;9.324;2023-05-10T10:35:52;2.43;;;1.10;;
17451;SDS011;8843;48.838;9.324;2023-05-10T10:38:20;0.90;;;0.90;;
17451;SDS011;8843;48.838;9.324;2023-05-10T10:40:48;0.77;;;0.77;;
17451;SDS011;8843;48.838;9.324;2023-05-10T10:43:27;0.80;;;0.80;;
17451;SDS011;8843;48.838;9.324;2023-05-10T10:46:11;0.90;;;0.90;;
17451;SDS011;8843;48.838;9.324;2023-05-10T10:48:39;0.90;;;0.90;;
17451;SDS011;8843;48.838;9.324;2023-05-10T10:51:08;0.87;;;0.87;;
17451;SDS011;8843;48.838;9.324;2023-05-10T10:53:34;1.27;;;0.80;;
17451;SDS011;8843;48.838;9.324;2023-05-10T10:56:07;0.70;;;0.70;;
17451;SDS011;8843;48.838;9.324;2023-05-10T10:58:35;0.87;;;0.87;;
17451;SDS011;8843;48.838;9.324;2023-05-10T11:01:10;1.10;;;0.90;;
17451;SDS011;8843;48.838;9.324;2023-05-10T11:03:39;0.70;;;0.70;;
17451;SDS011;8843;48.838;9.324;2023-05-10T11:06:07;0.90;;;0.90;;
17451;SDS011;8843;48.838;9.324;2023-05-10T11:08:39;2.10;;;0.70;;
17451;SDS011;8843;48.838;9.324;2023-05-10T11:11:12;0.77;;;0.77;;
17451;SDS011;8843;48.838;9.324;2023-05-10T11:13:41;1.53;;;0.90;;
17451;SDS011;8843;48.838;9.324;2023-05-10T11:16:10;0.90;;;0.80;;
17451;SDS011;8843;48.838;9.324;2023-05-10T11:18:41;0.60;;;0.60;;
17451;SDS011;8843;48.838;9.324;2023-05-10T11:21:30;1.10;;;1.00;;
17451;SDS011;8843;48.838;9.324;2023-05-10T11:23:59;1.30;;;1.20;;
17451;SDS011;8843;48.838;9.324;2023-05-10T11:26:31;1.50;;;0.80;;
17451;SDS011;8843;48.838;9.324;2023-05-10T11:28:59;1.80;;;1.30;;
17451;SDS011;8843;48.838;9.324;2023-05-10T11:31:27;0.80;;;0.80;;
17451;SDS011;8843;48.838;9.324;2023-05-10T11:33:55;0.87;;;0.87;;
17451;SDS011;8843;48.838;9.324;2023-05-10T11:36:24;0.80;;;0.80;;
17451;SDS011;8843;48.838;9.324;2023-05-10T11:38:54;0.70;;;0.70;;
17451;SDS011;8843;48.838;9.324;2023-05-10T11:41:21;0.97;;;0.90;;
17451;SDS011;8843;48.838;9.324;2023-05-10T11:43:50;2.50;;;1.40;;
17451;SDS011;8843;48.838;9.324;2023-05-10T11:46:18;2.47;;;0.90;;
17451;SDS011;8843;48.838;9.324;2023-05-10T11:48:46;1.00;;;0.90;;
17451;SDS011;8843;48.838;9.324;2023-05-10T11:51:15;1.63;;;1.40;;
17451;SDS011;8843;48.838;9.324;2023-05-10T11:53:45;2.37;;;1.53;;
17451;SDS011;8843;48.838;9.324;2023-05-10T11:56:14;1.13;;;0.80;;
17451;SDS011;8843;48.838;9.324;2023-05-10T11:58:41;1.30;;;1.00;;
17451;SDS011;8843;48.838;9.324;2023-05-10T12:01:07;1.20;;;0.90;;
17451;SDS011;8843;48.838;9.324;2023-05-10T12:03:35;1.17;;;1.00;;
17451;SDS011;8843;48.838;9.324;2023-05-10T12:06:03;2.33;;;1.13;;
17451;SDS011;8843;48.838;9.324;2023-05-10T12:08:30;0.93;;;0.93;;
17451;SDS011;8843;48.838;9.324;2023-05-10T12:11:04;1.67;;;1.10;;
17451;SDS011;8843;48.838;9.324;2023-05-10T12:13:36;2.37;;;1.10;;
17451;SDS011;8843;48.838;9.324;2023-05-10T12:16:12;2.30;;;1.27;;
17451;SDS011;8843;48.838;9.324;2023-05-10T12:18:40;1.57;;;1.23;;
17451;SDS011;8843;48.838;9.324;2023-05-10T12:21:07;1.10;;;1.00;;
17451;SDS011;8843;48.838;9.324;2023-05-10T12:23:36;2.30;;;1.33;;
17451;SDS011;8843;48.838;9.324;2023-05-10T12:26:03;2.03;;;1.03;;
17451;SDS011;8843;48.838;9.324;2023-05-10T12:28:30;1.90;;;1.30;;
17451;SDS011;8843;48.838;9.324;2023-05-10T12:30:59;1.80;;;1.53;;
17451;SDS011;8843;48.838;9.324;2023-05-10T12:33:27;1.20;;;1.10;;
17451;SDS011;8843;48.838;9.324;2023-05-10T12:36:01;1.60;;;0.97;;
17451;SDS011;8843;48.838;9.324;2023-05-10T12:38:29;1.10;;;1.00;;
17451;SDS011;8843;48.838;9.324;2023-05-10T12:40:59;1.10;;;1.10;;
17451;SDS011;8843;48.838;9.324;2023-05-10T12:43:27;1.00;;;1.00;;
17451;SDS011;8843;48.838;9.324;2023-05-10T12:45:54;1.83;;;1.03;;
17451;SDS011;8843;48.838;9.324;2023-05-10T12:48:22;1.63;;;1.07;;
17451;SDS011;8843;48.838;9.324;2023-05-10T12:50:50;1.57;;;1.00;;
17451;SDS011;8843;48.838;9.324;2023-05-10T12:53:17;2.77;;;1.20;;
17451;SDS011;8843;48.838;9.324;2023-05-10T12:55:43;2.67;;;1.10;;
17451;SDS011;8843;48.838;9.324;2023-05-10T12:58:10;1.93;;;0.90;;
17451;SDS011;8843;48.838;9.324;2023-05-10T13:00:37;3.73;;;1.20;;
17451;SDS011;8843;48.838;9.324;2023-05-10T13:03:04;0.87;;;0.87;;
17451;SDS011;8843;48.838;9.324;2023-05-10T13:05:33;1.97;;;0.90;;
17451;SDS011;8843;48.838;9.324;2023-05-10T13:08:00;3.77;;;0.87;;
17451;SDS011;8843;48.838;9.324;2023-05-10T13:10:28;1.30;;;0.90;;
17451;SDS011;8843;48.838;9.324;2023-05-10T13:12:55;2.70;;;1.40;;
17451;SDS011;8843;48.838;9.324;2023-05-10T13:15:22;3.40;;;1.10;;
17451;SDS011;8843;48.838;9.324;2023-05-10T13:17:49;1.10;;;0.93;;
17451;SDS011;8843;48.838;9.324;2023-05-10T13:20:16;2.27;;;0.90;;
17451;SDS011;8843;48.838;9.324;2023-05-10T13:22:45;1.37;;;0.80;;
17451;SDS011;8843;48.838;9.324;2023-05-10T13:25:12;3.60;;;1.20;;
17451;SDS011;8843;48.838;9.324;2023-05-10T13:27:39;2.07;;;0.80;;
17451;SDS011;8843;48.838;9.324;2023-05-10T13:30:06;1.33;;;1.20;;
17451;SDS011;8843;48.838;9.324;2023-05-10T13:32:34;1.97;;;1.00;;
17451;SDS011;8843;48.838;9.324;2023-05-10T13:35:01;1.30;;;1.00;;
17451;SDS011;8843;48.838;9.324;2023-05-10T13:37:29;1.20;;;1.10;;
17451;SDS011;8843;48.838;9.324;2023-05-10T13:39:57;2.10;;;1.00;;
17451;SDS011;8843;48.838;9.324;2023-05-10T13:42:24;0.93;;;0.83;;
17451;SDS011;8843;48.838;9.324;2023-05-10T13:44:52;1.13;;;1.00;;
17451;SDS011;8843;48.838;9.324;2023-05-10T13:47:18;1.27;;;1.00;;
17451;SDS011;8843;48.838;9.324;2023-05-10T13:49:46;3.30;;;1.20;;
17451;SDS011;8843;48.838;9.324;2023-05-10T13:52:13;1.13;;;0.90;;
17451;SDS011;8843;48.838;9.324;2023-05-10T13:54:40;1.97;;;0.90;;
17451;SDS011;8843;48.838;9.324;2023-05-10T13:57:08;1.30;;;1.20;;
17451;SDS011;8843;48.838;9.324;2023-05-10T13:59:37;1.57;;;1.40;;
17451;SDS011;8843;48.838;9.324;2023-05-10T14:02:04;2.60;;;1.20;;
17451;SDS011;8843;48.838;9.324;2023-05-10T14:04:32;2.93;;;1.10;;
17451;SDS011;8843;48.838;9.324;2023-05-10T14:07:00;2.33;;;1.10;;
17451;SDS011;8843;48.838;9.324;2023-05-10T14:09:27;1.10;;;1.00;;
17451;SDS011;8843;48.838;9.324;2023-05-10T14:11:54;1.10;;;1.00;;
17451;SDS011;8843;48.838;9.324;2023-05-10T14:14:22;2.17;;;1.03;;
17451;SDS011;8843;48.838;9.324;2023-05-10T14:16:49;1.13;;;1.03;;
17451;SDS011;8843;48.838;9.324;2023-05-10T14:19:16;0.80;;;0.80;;
17451;SDS011;8843;48.838;9.324;2023-05-10T14:21:43;1.77;;;1.17;;
17451;SDS011;8843;48.838;9.324;2023-05-10T14:24:10;1.90;;;1.20;;
17451;SDS011;8843;48.838;9.324;2023-05-10T14:26:37;1.27;;;1.00;;
17451;SDS011;8843;48.838;9.324;2023-05-10T14:29:03;1.70;;;1.00;;
17451;SDS011;8843;48.838;9.324;2023-05-10T14:31:32;1.33;;;0.90;;
17451;SDS011;8843;48.838;9.324;2023-05-10T14:33:59;1.70;;;0.90;;
17451;SDS011;8843;48.838;9.324;2023-05-10T14:36:25;2.33;;;1.10;;
17451;SDS011;8843;48.838;9.324;2023-05-10T14:38:52;2.83;;;1.27;;
17451;SDS011;8843;48.838;9.324;2023-05-10T14:41:19;1.60;;;1.00;;
17451;SDS011;8843;48.838;9.324;2023-05-10T14:43:46;1.67;;;0.90;;
17451;SDS011;8843;48.838;9.324;2023-05-10T14:46:13;1.40;;;1.07;;
17451;SDS011;8843;48.838;9.324;2023-05-10T14:48:42;0.83;;;0.83;;
17451;SDS011;8843;48.838;9.324;2023-05-10T14:51:09;2.13;;;1.20;;
17451;SDS011;8843;48.838;9.324;2023-05-10T14:53:36;1.77;;;1.03;;
17451;SDS011;8843;48.838;9.324;2023-05-10T14:56:02;1.10;;;1.00;;
17451;SDS011;8843;48.838;9.324;2023-05-10T14:58:30;1.80;;;1.10;;
17451;SDS011;8843;48.838;9.324;2023-05-10T15:00:57;1.30;;;1.00;;
17451;SDS011;8843;48.838;9.324;2023-05-10T15:03:23;2.10;;;1.10;;
17451;SDS011;8843;48.838;9.324;2023-05-10T15:05:52;1.73;;;1.30;;
17451;SDS011;8843;48.838;9.324;2023-05-10T15:08:21;1.10;;;1.00;;
17451;SDS011;8843;48.838;9.324;2023-05-10T15:10:48;1.90;;;0.90;;
17451;SDS011;8843;48.838;9.324;2023-05-10T15:13:15;1.20;;;1.10;;